Aérodrome :
LOGIN :

S'inscrire | Disclaimer

   EN    FR    IT 

 










Légende :    VFR   VFR Marginal   IFR   IFR Intensif   IFR Très Intensif
Visi : 
Plafond : 
>= 8 km
>= 3000ft
5 à 8 km
1000 à 3000 ft
1500m à 5 km
500 à 1000 ft
800 à 1500m
200 à 500 ft
< 800m
< 200 ft
Symboles :   Orages  Brouillard  Fortes neiges  Fortes précipitations  Vent > 20 kt
SIGMETs :   Divers  Orages  Givrage  Turbulence  Onde Orograph.  Cendres Volcan.






- Altitude de l'aérodrome : 12 ft
- Code IATA : NCE


LFMN - Nice

DERNIER METAR :
  • 281300Z 18010KT 9999 FEW040 14/04 Q1018 NOSIG

METARs EXPIRÉS :
  • 281230Z 18009KT 9999 FEW040 14/03 Q1018 NOSIG
  • 281200Z 17010KT 9999 FEW040 14/03 Q1018 NOSIG
  • 281130Z 18011KT 9999 FEW040 14/04 Q1018 NOSIG
  • 281100Z 17014KT 9999 FEW040 14/05 Q1018 NOSIG
  • 281030Z 17013KT 9999 FEW020 14/04 Q1018 NOSIG

TAF AMD TAF LFMN
Valide du 28 à 10h jusqu'au 29 à 15h UTC


281005Z 2810/2915 21010KT CAVOK
BECMG 2818/2820 33010KT
BECMG 2909/2911 09010KT
ATIS : +33 4 93 17 21 16



MET'MAP, la Météo Aéronautique d'un coup d'oeil ! - Copyright ORBIFLY Décembre 2007 - Disclaimer

ORBIFLY MET'MAP TEAM :

Programmation & Développement : Alexandra Zaïnal
Sur une idée originale de : Baudouin d'Aumeries
Assistance à la programmation : Marc-Olivier Méhu
Soutien technique & logistique : Manuel Goepfert

Contact : metmap@orbifly.com




SOURCES & CREDITS :

   NOAA